Terminal Aerodrome Forecast
Issued by NWS

Home | Current Version | Previous Version | Text Only | Print | Product List | Glossary On
Versions: 1 2 3 4 5 6 7 8 9 10 11 12
094
FTUS44 KTSA 061120
TAFBVO
TAF
KBVO 061120Z 0612/0712 00000KT P6SM SCT250
     FM061500 17006KT P6SM SCT250
     FM070300 19003KT P6SM SCT250=

USA.gov is the U.S. government's official web portal to all federal, state and local government web resources and services.